St. Roch: Past 24 Hour Conditions

 

Clyde Airport

08:00 AM EDT 30 September 2014
This table is a summary of hourly weather conditions for the past 24 hours.
Date / Time
(EDT)
Wind(knots) Conditions Visibility(km) Pressure(kPa) Air tempC) Relative humidity(%) Dew pointC) Wind Chill
30 September 2014
8:00 NNW 23 gust 36 Heavy Snow 0.4 99.9 -4 95 -4 -13
7:00 NW 20 gust 30 Snow 0.6 99.8 -4 96 -4 -12
6:00 WNW 21 gust 26 Light Snow 1 99.8 -5 92 -6 -14
5:00 WNW 21 gust 26 Light Snow 15 99.8 -5 84 -7 -13
4:00 WNW 23 gust 28 Light Snow 5 99.8 -4 89 -6 -13
3:00 WNW 20 gust 25 Mostly Cloudy 15 99.9 -5 87 -7 -14
2:00 WNW 20 gust 25 Light Snow 11 99.9 -5 85 -7 -14
1:00 WNW 21 Light Snow 10 99.9 -5 89 -7 -14
0:00 WNW 16 gust 23 Mainly Clear 16 100.0 -6 87 -8 -14
29 September 2014
23:00 WNW 20 gust 26 Light Snow 15 100.0 -4 86 -6 -13
22:00 WNW 24 Light Snow 6 100.0 -5 84 -7 -15
21:00 WNW 19 Cloudy 16 100.1 -6 79 -9 -15
20:00 WNW 17 Cloudy 16 100.2 -7 79 -10 -16
19:00 WNW 16 N/A N/A 100.3 -8 79 -11 -17
18:00 WNW 15 Sunny 16 100.4 -9 78 -12 -18
17:00 W 15 Sunny 16 100.4 -8 79 -11 -17
16:00 WNW 14 N/A N/A 100.4 -7 80 -10 -15
15:00 NW 11 Light Snow 16 100.5 -5 86 -7 -12
14:00 W 12 Light Snow 10 100.5 -5 88 -6 -11
13:00 WNW 12 Light Snow 6 100.5 -5 89 -6 -11
12:00 WNW 15 Mostly Cloudy 16 100.5 -4 85 -7 -12
11:00 WNW 13 Mostly Cloudy 16 100.6 -4 81 -7 -11
10:00 WNW 14 Light Snow 16 100.6 -5 85 -7 -12
9:00 WNW 11 Sunny 16 100.6 -8 88 -9 -15
8:00 WNW 14 Light Snow 16 100.7 -5 89 -7 -13
 
Map of Arctic - Eastern Arctic marine weather areas Baker Lake Airport Chesterfield Inlet Airport Coral Harbour Airport Gjoa Haven Airport Kugaaruk Airport Rankin Inlet Airport Shepherd Bay Airport Whale Cove Airport Arctic Bay Brevoort Island Qikiqtarjuaq Airport Cape Dorset Airport Cape Dyer Cape Hooper Clyde Airport Grise Fiord Airport Hall Beach Airport Igloolik Airport Iqaluit Airport Longstaff Bluff Pangnirtung Airport Pond Inlet Airport Repulse Bay Airport Resolute Airport Resolution Island Rowley Island Airport Taloyoak Airport Wager Bay Akulivik Airport Ivujivik Airport Puvirnituq Airport Kangiqsujuaq Airport Kangirsuk Airport Quaqtaq Airport Tasiujaq Airport Cape Kakkiviak Cape Kiglapait Nain Airport Saglek Cape Mercy Kimmirut Airport Aupaluk Airport Salluit Airport Kangiqsualujjuaq Airport Fort Ross
Legend: buoyBuoy land stationLand Station